Terminal Aerodrome Forecast
Issued by NWS Raleigh/Durham, NC

Home | Current Version | Previous Version | Text Only | Print | Product List | Glossary On
Versions: 1 2 3 4 5 6 7 8 9 10 11 12 13 14 15 16 17 18 19 20 21 22 23 24 25 26 27 28
000
FTUS42 KRAH 230540
TAFFAY
TAF
KFAY 230540Z 2306/2406 11003KT P6SM FEW120 BKN250
     FM231000 09003KT 5SM BR SCT015
     FM231400 10006KT P6SM BKN015
     FM231600 10005KT 6SM -RA BKN010 OVC025
     FM232000 11007KT 3SM -RA BR OVC006
     FM240000 19011KT 2SM -RADZ BR OVC003
     FM240500 20013G18KT 6SM -RA BR BKN006 OVC030=

USA.gov is the U.S. government's official web portal to all federal, state and local government web resources and services.